Time;durP1;ratioP1;P1;durP2;ratioP2;P2;SDS_P1;SDS_P2;PMS_P1;PMS_P2;Temp;Humidity;BMP_temperature;BMP_pressure;BME280_temperature;BME280_humidity;BME280_pressure;Samples;Min_cycle;Max_cycle;Signal;HPM_P1;HPM_P2
2021/09/15 00:01:55;;;;;;;8.85;5.65;;;21.90;99.90;;;;;;5074884;28;20204;-63
2021/09/15 00:04:21;;;;;;;6.15;4.95;;;21.80;99.90;;;;;;5074526;28;20228;-62
2021/09/15 00:06:48;;;;;;;6.60;5.30;;;21.80;99.90;;;;;;5074586;28;20200;-62
2021/09/15 00:09:15;;;;;;;7.45;5.80;;;21.80;99.90;;;;;;5074333;28;20314;-62
2021/09/15 00:11:41;;;;;;;8.27;5.55;;;21.80;99.90;;;;;;5074572;28;20205;-62
2021/09/15 00:14:08;;;;;;;8.15;5.80;;;21.90;99.90;;;;;;5074346;28;20228;-61
2021/09/15 00:16:36;;;;;;;6.47;5.50;;;21.90;99.90;;;;;;5074727;28;20749;-65
2021/09/15 00:19:03;;;;;;;6.72;5.45;;;21.70;99.90;;;;;;5074591;28;20209;-62
2021/09/15 00:21:30;;;;;;;6.28;5.32;;;21.80;99.90;;;;;;5074194;28;20672;-61
2021/09/15 00:23:57;;;;;;;6.05;5.45;;;21.80;99.90;;;;;;5074018;28;20224;-62
2021/09/15 00:26:23;;;;;;;6.25;5.53;;;21.80;99.90;;;;;;5074123;28;20205;-62
2021/09/15 00:28:50;;;;;;;6.35;5.28;;;21.80;99.90;;;;;;5073934;28;20204;-62
2021/09/15 00:31:16;;;;;;;7.75;5.32;;;21.70;99.90;;;;;;5074292;28;20201;-62
2021/09/15 00:33:44;;;;;;;7.35;5.55;;;21.80;99.90;;;;;;5074106;28;20200;-62
2021/09/15 00:36:11;;;;;;;7.45;5.40;;;21.80;99.90;;;;;;5073765;28;20229;-61
2021/09/15 00:38:38;;;;;;;6.20;5.60;;;21.80;99.90;;;;;;5073822;28;20209;-63
2021/09/15 00:41:05;;;;;;;7.63;5.80;;;21.80;99.90;;;;;;5074000;28;20209;-62
2021/09/15 00:43:32;;;;;;;5.72;4.88;;;21.80;99.90;;;;;;5074366;28;20220;-63
2021/09/15 00:45:58;;;;;;;5.78;5.15;;;21.90;99.90;;;;;;5074101;28;20313;-63
2021/09/15 00:48:25;;;;;;;5.72;5.03;;;21.90;99.90;;;;;;5073768;28;20205;-63
2021/09/15 00:50:54;;;;;;;5.85;5.25;;;22.00;99.90;;;;;;5073685;28;20200;-63
2021/09/15 00:53:20;;;;;;;5.82;5.25;;;22.00;99.90;;;;;;5073650;28;20232;-63
2021/09/15 00:55:47;;;;;;;6.75;4.63;;;22.00;99.90;;;;;;5073300;28;20229;-63
2021/09/15 00:58:14;;;;;;;7.15;5.20;;;22.00;99.90;;;;;;5073718;28;20208;-63
2021/09/15 01:00:40;;;;;;;7.32;5.03;;;22.00;99.90;;;;;;5073506;28;20575;-62
2021/09/15 01:03:07;;;;;;;8.02;5.28;;;21.90;99.90;;;;;;5073451;28;20224;-62
2021/09/15 01:05:34;;;;;;;6.65;5.20;;;21.90;99.90;;;;;;5073468;28;20225;-63
2021/09/15 01:08:02;;;;;;;7.00;5.05;;;21.80;99.90;;;;;;5073528;28;20212;-62
2021/09/15 01:10:30;;;;;;;6.32;5.15;;;21.70;99.90;;;;;;5073618;28;20209;-62
2021/09/15 01:12:57;;;;;;;6.85;5.57;;;21.60;99.90;;;;;;5073509;28;20201;-61
2021/09/15 01:15:23;;;;;;;8.02;5.30;;;21.60;99.90;;;;;;5073231;28;20232;-62
2021/09/15 01:17:50;;;;;;;6.10;5.50;;;21.40;99.90;;;;;;5073126;28;20211;-62
2021/09/15 01:20:17;;;;;;;8.82;5.28;;;21.40;99.90;;;;;;5073718;28;20215;-61
2021/09/15 01:22:45;;;;;;;5.82;5.22;;;21.50;99.90;;;;;;5073151;28;20205;-62
2021/09/15 01:25:11;;;;;;;7.60;5.50;;;21.50;99.90;;;;;;5072887;28;20225;-62
2021/09/15 01:27:38;;;;;;;5.82;5.28;;;21.60;99.90;;;;;;5073171;28;20216;-62
2021/09/15 01:30:06;;;;;;;8.88;5.57;;;21.60;99.90;;;;;;5073194;28;20205;-63
2021/09/15 01:32:33;;;;;;;8.05;6.07;;;21.70;99.90;;;;;;5073331;28;20208;-63
2021/09/15 01:34:59;;;;;;;6.15;5.55;;;21.70;99.90;;;;;;5072812;28;20233;-62
2021/09/15 01:37:26;;;;;;;7.85;5.15;;;21.60;99.90;;;;;;5072803;28;20205;-62
2021/09/15 01:39:54;;;;;;;6.68;5.80;;;21.60;99.90;;;;;;5073050;28;20208;-63
2021/09/15 01:42:21;;;;;;;9.85;5.60;;;21.70;99.90;;;;;;5073091;28;20205;-63
2021/09/15 01:44:48;;;;;;;6.03;5.40;;;21.70;99.90;;;;;;5072717;28;20224;-62
2021/09/15 01:47:16;;;;;;;6.10;5.50;;;21.70;99.90;;;;;;5072797;28;20209;-63
2021/09/15 01:49:44;;;;;;;10.70;6.38;;;21.80;99.90;;;;;;5072598;28;20205;-63
2021/09/15 01:52:12;;;;;;;7.82;4.57;;;21.80;99.90;;;;;;5072829;28;20270;-63
2021/09/15 01:54:40;;;;;;;5.55;4.75;;;21.80;99.90;;;;;;5072456;28;20224;-62
2021/09/15 01:57:08;;;;;;;4.88;4.38;;;21.70;99.90;;;;;;5072695;28;20561;-62
2021/09/15 01:59:34;;;;;;;5.93;5.32;;;21.70;99.90;;;;;;5072234;28;20613;-63
2021/09/15 02:02:01;;;;;;;8.10;5.70;;;21.60;99.90;;;;;;5072390;28;20622;-63
2021/09/15 02:04:28;;;;;;;7.63;5.50;;;21.60;99.90;;;;;;5071985;28;20298;-62
2021/09/15 02:06:55;;;;;;;5.70;5.18;;;21.60;99.90;;;;;;5072512;28;20216;-63
2021/09/15 02:09:23;;;;;;;5.90;5.38;;;21.50;99.90;;;;;;5072060;28;20240;-62
2021/09/15 02:11:49;;;;;;;6.40;5.78;;;21.50;99.90;;;;;;5072315;28;20730;-63
2021/09/15 02:14:17;;;;;;;9.68;6.90;;;21.60;99.90;;;;;;5072089;28;20224;-62
2021/09/15 02:16:44;;;;;;;6.75;6.05;;;21.50;99.90;;;;;;5072110;28;20266;-62
2021/09/15 02:19:11;;;;;;;7.38;6.00;;;21.50;99.90;;;;;;5071842;28;20238;-63
2021/09/15 02:21:38;;;;;;;6.90;6.03;;;21.40;99.90;;;;;;5071630;28;20204;-63
2021/09/15 02:24:06;;;;;;;7.85;6.07;;;21.40;99.90;;;;;;5071661;28;20225;-63
2021/09/15 02:26:33;;;;;;;7.57;6.18;;;21.40;99.90;;;;;;5071973;28;20221;-63
2021/09/15 02:29:00;;;;;;;7.03;5.82;;;21.40;99.90;;;;;;5071811;28;20205;-63
2021/09/15 02:31:28;;;;;;;7.50;6.10;;;21.40;99.90;;;;;;5071765;28;20266;-62
2021/09/15 02:33:55;;;;;;;9.52;5.50;;;21.50;99.90;;;;;;5071352;28;20209;-63
2021/09/15 02:36:23;;;;;;;7.97;5.97;;;21.40;99.90;;;;;;5071907;28;20282;-63
2021/09/15 02:38:50;;;;;;;6.28;5.50;;;21.50;99.90;;;;;;5071800;28;20215;-63
2021/09/15 02:41:17;;;;;;;9.13;6.35;;;21.50;99.90;;;;;;5071994;28;20281;-63
2021/09/15 02:43:44;;;;;;;10.60;7.03;;;21.60;99.90;;;;;;5071608;28;20228;-63
2021/09/15 02:46:10;;;;;;;8.35;7.03;;;21.60;99.90;;;;;;5071723;28;20225;-63
2021/09/15 02:48:38;;;;;;;7.75;6.15;;;21.60;99.90;;;;;;5071906;28;20262;-63
2021/09/15 02:51:05;;;;;;;7.22;6.10;;;21.60;99.90;;;;;;5071662;28;20266;-62
2021/09/15 02:53:32;;;;;;;7.50;5.90;;;21.60;99.90;;;;;;5071570;28;20205;-63
2021/09/15 02:55:58;;;;;;;8.13;6.22;;;21.40;99.90;;;;;;5071487;28;20781;-63
2021/09/15 02:58:25;;;;;;;7.50;6.57;;;21.30;99.90;;;;;;5071485;28;20667;-62
2021/09/15 03:00:52;;;;;;;8.55;6.35;;;21.20;99.90;;;;;;5071365;28;20209;-63
2021/09/15 03:03:18;;;;;;;8.77;6.45;;;21.10;99.90;;;;;;5071424;28;20636;-62
2021/09/15 03:05:46;;;;;;;11.18;7.03;;;20.90;99.90;;;;;;5071129;28;20278;-61
2021/09/15 03:08:13;;;;;;;10.25;6.90;;;20.80;99.90;;;;;;5071026;28;20205;-62
2021/09/15 03:10:40;;;;;;;10.25;6.65;;;20.80;99.90;;;;;;5070984;28;20250;-62
2021/09/15 03:13:06;;;;;;;8.00;6.85;;;20.90;99.90;;;;;;5071081;28;20200;-63
2021/09/15 03:15:33;;;;;;;8.25;6.97;;;21.00;99.90;;;;;;5070984;28;20228;-62
2021/09/15 03:18:00;;;;;;;8.75;6.55;;;21.10;99.90;;;;;;5070989;28;20209;-63
2021/09/15 03:20:26;;;;;;;8.10;5.97;;;21.20;99.90;;;;;;5071025;28;20205;-63
2021/09/15 03:22:54;;;;;;;8.23;6.60;;;21.20;99.90;;;;;;5070938;28;20689;-63
2021/09/15 03:25:21;;;;;;;9.57;7.00;;;21.20;99.90;;;;;;5070681;28;20667;-63
2021/09/15 03:27:48;;;;;;;6.35;5.75;;;21.30;99.90;;;;;;5070682;28;20205;-63
2021/09/15 03:30:15;;;;;;;9.25;6.25;;;21.20;99.90;;;;;;5070979;28;20212;-63
2021/09/15 03:32:42;;;;;;;9.38;5.57;;;21.40;99.90;;;;;;5069960;28;20209;-63
2021/09/15 03:35:09;;;;;;;7.30;6.10;;;21.50;99.90;;;;;;5092408;22;20228;-67
2021/09/15 03:37:36;;;;;;;6.57;5.97;;;21.50;99.90;;;;;;5092387;28;20204;-69
2021/09/15 03:40:05;;;;;;;7.60;5.85;;;21.60;99.90;;;;;;5092135;28;20261;-66
2021/09/15 03:42:32;;;;;;;6.30;5.70;;;21.60;99.90;;;;;;5091675;28;20257;-66
2021/09/15 03:44:58;;;;;;;10.27;7.30;;;21.70;99.90;;;;;;5091893;28;20240;-66
2021/09/15 03:47:25;;;;;;;8.10;6.38;;;21.70;99.90;;;;;;5092178;28;20204;-66
2021/09/15 03:49:52;;;;;;;6.40;5.80;;;21.70;99.90;;;;;;5091872;28;20593;-65
2021/09/15 03:52:18;;;;;;;6.30;5.30;;;21.80;99.90;;;;;;5092051;28;20628;-67
2021/09/15 03:54:45;;;;;;;9.65;5.95;;;21.80;99.90;;;;;;5091709;28;20224;-66
2021/09/15 03:57:13;;;;;;;7.25;5.80;;;21.80;99.90;;;;;;5091968;28;20204;-63
2021/09/15 03:59:40;;;;;;;7.50;6.00;;;21.80;99.90;;;;;;5092108;28;20204;-64
2021/09/15 04:02:07;;;;;;;7.47;6.13;;;21.80;99.90;;;;;;5092317;28;20208;-67
2021/09/15 04:04:33;;;;;;;6.97;6.13;;;21.90;99.90;;;;;;5092028;28;20228;-66
2021/09/15 04:07:00;;;;;;;7.25;6.53;;;21.90;99.90;;;;;;5092199;28;20204;-66
2021/09/15 04:09:27;;;;;;;7.57;6.32;;;21.90;99.90;;;;;;5091726;28;20675;-66
2021/09/15 04:11:53;;;;;;;8.05;6.85;;;21.90;99.90;;;;;;5091882;28;20207;-65
2021/09/15 04:14:22;;;;;;;8.90;6.57;;;21.90;99.90;;;;;;5091540;28;20564;-66
2021/09/15 04:16:49;;;;;;;7.55;6.35;;;21.90;99.90;;;;;;5091858;28;20699;-66
2021/09/15 04:19:16;;;;;;;8.13;6.40;;;21.90;99.90;;;;;;5091431;28;20211;-66
2021/09/15 04:21:43;;;;;;;8.10;6.05;;;21.80;99.90;;;;;;5091829;28;20212;-65
2021/09/15 04:24:28;;;;;;;6.75;5.93;;;21.70;99.90;;;;;;5091386;28;20277;-67
2021/09/15 04:32:24;;;;;;;12.77;8.77;;;21.60;99.90;;;;;;5089534;28;20235;-66
2021/09/15 04:34:50;;;;;;;9.93;7.88;;;21.60;99.90;;;;;;5090447;28;20228;-65
2021/09/15 04:37:17;;;;;;;7.68;6.78;;;21.70;99.90;;;;;;5090808;28;20706;-66
2021/09/15 04:39:44;;;;;;;9.18;6.78;;;21.60;99.90;;;;;;5090321;28;20784;-66
2021/09/15 04:42:11;;;;;;;10.00;7.28;;;21.70;99.90;;;;;;5090489;28;20200;-65
2021/09/15 04:44:37;;;;;;;6.20;4.97;;;21.70;99.90;;;;;;5093087;28;20231;-66
2021/09/15 04:47:06;;;;;;;16.52;13.25;;;21.70;99.90;;;;;;5094102;28;20269;-65
2021/09/15 04:49:32;;;;;;;8.15;5.22;;;21.70;99.90;;;;;;5094156;28;20630;-66
2021/09/15 04:51:59;;;;;;;5.70;4.57;;;21.70;99.90;;;;;;5094087;28;20265;-65
2021/09/15 04:54:26;;;;;;;7.38;4.68;;;21.60;99.90;;;;;;5093912;28;20211;-65
2021/09/15 04:56:53;;;;;;;7.03;5.63;;;21.70;99.90;;;;;;5094068;28;20269;-66
2021/09/15 04:59:20;;;;;;;7.80;5.57;;;21.60;99.90;;;;;;5093911;28;20277;-67
2021/09/15 05:01:46;;;;;;;8.05;5.78;;;21.60;99.90;;;;;;5094197;28;20204;-66
2021/09/15 05:04:14;;;;;;;16.85;12.15;;;21.70;99.90;;;;;;5093667;28;20220;-65
2021/09/15 05:06:41;;;;;;;5.88;5.28;;;21.60;99.90;;;;;;5093784;28;20200;-65
2021/09/15 05:09:08;;;;;;;9.02;5.32;;;21.80;99.90;;;;;;5093846;28;20725;-66
2021/09/15 05:11:34;;;;;;;6.30;5.30;;;21.80;99.90;;;;;;5093465;28;20215;-67
2021/09/15 05:14:01;;;;;;;5.95;5.22;;;21.80;99.90;;;;;;5093368;28;20212;-66
2021/09/15 05:16:30;;;;;;;7.13;5.55;;;21.70;99.90;;;;;;5093815;28;20305;-64
2021/09/15 05:18:57;;;;;;;6.18;5.00;;;21.80;99.90;;;;;;5093383;28;20262;-65
2021/09/15 05:21:25;;;;;;;5.80;4.88;;;21.90;99.90;;;;;;5093681;28;20211;-65
2021/09/15 05:23:52;;;;;;;7.93;4.95;;;21.80;99.90;;;;;;5093285;28;20208;-64
2021/09/15 05:26:18;;;;;;;7.05;4.78;;;21.90;99.90;;;;;;5093241;28;20224;-64
2021/09/15 05:28:45;;;;;;;7.10;5.60;;;21.80;99.90;;;;;;5093168;28;20203;-64
2021/09/15 05:31:12;;;;;;;9.27;5.57;;;21.90;99.90;;;;;;5093807;28;20208;-65
2021/09/15 05:33:38;;;;;;;9.35;5.30;;;21.80;99.90;;;;;;5093557;28;20204;-65
2021/09/15 05:36:05;;;;;;;6.43;4.68;;;21.90;99.90;;;;;;5093459;28;20232;-67
2021/09/15 05:38:33;;;;;;;6.32;4.75;;;21.90;99.90;;;;;;5093123;28;20215;-65
2021/09/15 05:41:00;;;;;;;7.15;4.80;;;21.90;99.90;;;;;;5093120;28;20610;-68
2021/09/15 05:43:27;;;;;;;5.50;4.63;;;22.00;99.90;;;;;;5092954;28;20208;-64
2021/09/15 05:45:53;;;;;;;5.75;4.82;;;22.00;99.90;;;;;;5093153;28;20231;-64
2021/09/15 05:48:20;;;;;;;8.23;4.80;;;22.10;99.90;;;;;;5092872;28;20584;-65
2021/09/15 05:50:47;;;;;;;6.60;5.00;;;22.10;99.90;;;;;;5092886;28;20208;-63
2021/09/15 05:53:14;;;;;;;8.52;5.65;;;22.10;99.90;;;;;;5092973;28;20207;-62
2021/09/15 05:55:42;;;;;;;8.90;6.10;;;22.10;99.90;;;;;;5091590;28;20247;-63
2021/09/15 05:58:09;;;;;;;7.72;5.07;;;22.10;99.90;;;;;;5092938;28;20619;-64
2021/09/15 06:00:35;;;;;;;5.45;4.63;;;22.10;99.90;;;;;;5093010;28;20211;-64
2021/09/15 06:03:02;;;;;;;6.30;5.43;;;22.20;99.90;;;;;;5093263;28;20208;-63
2021/09/15 06:05:29;;;;;;;9.15;5.03;;;22.20;99.90;;;;;;5092489;28;20228;-64
2021/09/15 06:07:55;;;;;;;6.90;4.95;;;22.20;99.90;;;;;;5092526;28;20270;-63
2021/09/15 06:10:22;;;;;;;6.65;5.50;;;22.20;99.90;;;;;;5092515;28;20204;-63
2021/09/15 06:12:50;;;;;;;7.10;5.25;;;22.20;99.90;;;;;;5092685;28;20719;-63
2021/09/15 06:15:17;;;;;;;5.90;4.78;;;22.20;99.90;;;;;;5092325;28;20723;-63
2021/09/15 06:17:44;;;;;;;5.97;5.40;;;22.20;99.90;;;;;;5092446;28;20219;-66
2021/09/15 06:20:11;;;;;;;8.18;5.80;;;22.20;99.90;;;;;;5092278;28;20678;-64
2021/09/15 06:22:38;;;;;;;5.93;4.47;;;22.30;99.90;;;;;;5092780;28;20298;-66
2021/09/15 06:25:06;;;;;;;7.82;5.18;;;22.20;99.90;;;;;;5091981;28;20726;-63
2021/09/15 06:27:34;;;;;;;8.23;5.20;;;22.10;99.90;;;;;;5092259;28;20205;-65
2021/09/15 06:30:02;;;;;;;7.03;5.15;;;22.20;99.90;;;;;;5092287;28;20204;-64
2021/09/15 06:32:29;;;;;;;6.00;5.10;;;22.10;99.90;;;;;;5092227;28;20576;-65
2021/09/15 06:34:56;;;;;;;6.72;5.10;;;22.20;99.90;;;;;;5092118;28;20609;-64
2021/09/15 06:37:23;;;;;;;8.43;5.57;;;22.10;99.90;;;;;;5092090;28;20632;-64
2021/09/15 06:39:50;;;;;;;8.73;5.22;;;22.10;99.90;;;;;;5092489;28;20204;-63
2021/09/15 06:42:17;;;;;;;6.68;4.63;;;22.10;99.90;;;;;;5091950;28;20207;-63
2021/09/15 06:44:43;;;;;;;5.75;4.80;;;22.20;99.90;;;;;;5091876;28;20239;-63
2021/09/15 06:47:12;;;;;;;9.45;5.07;;;22.20;99.90;;;;;;5092464;28;20238;-63
2021/09/15 06:49:38;;;;;;;6.60;4.70;;;22.30;99.90;;;;;;5092070;28;20281;-63
2021/09/15 06:52:05;;;;;;;5.40;4.60;;;22.30;99.90;;;;;;5092020;28;20238;-63
2021/09/15 06:54:32;;;;;;;8.25;5.05;;;22.30;99.90;;;;;;5091964;28;20204;-63
2021/09/15 06:56:59;;;;;;;9.98;5.60;;;22.40;99.90;;;;;;5091699;28;20694;-67
2021/09/15 06:59:25;;;;;;;5.00;4.47;;;22.20;99.90;;;;;;5091676;28;20681;-64
2021/09/15 07:01:52;;;;;;;5.88;4.75;;;22.20;99.90;;;;;;5091880;28;20591;-64
2021/09/15 07:04:20;;;;;;;10.45;4.55;;;22.00;99.90;;;;;;5091538;28;20212;-64
2021/09/15 07:06:47;;;;;;;6.47;4.70;;;22.10;99.90;;;;;;5091393;28;20204;-63
2021/09/15 07:09:13;;;;;;;7.47;4.78;;;22.10;99.90;;;;;;5091462;28;20679;-63
2021/09/15 07:11:40;;;;;;;6.63;5.05;;;22.10;99.90;;;;;;5091786;28;20204;-63
2021/09/15 07:14:07;;;;;;;6.93;4.80;;;22.00;99.90;;;;;;5091641;28;20200;-64
2021/09/15 07:16:34;;;;;;;7.43;5.00;;;22.00;99.90;;;;;;5091473;28;20711;-63
2021/09/15 07:19:01;;;;;;;5.53;4.43;;;22.00;99.90;;;;;;5091795;28;20578;-64
2021/09/15 07:21:29;;;;;;;5.22;4.13;;;22.10;99.90;;;;;;5091581;28;20200;-64
2021/09/15 07:23:56;;;;;;;7.30;4.75;;;22.20;99.90;;;;;;5091330;28;20231;-63
2021/09/15 07:26:23;;;;;;;5.97;4.75;;;22.20;99.90;;;;;;5091126;28;20228;-64
2021/09/15 07:28:50;;;;;;;6.13;4.20;;;22.20;99.90;;;;;;5091597;28;20199;-63
2021/09/15 07:31:17;;;;;;;6.45;4.60;;;22.30;99.90;;;;;;5091135;28;20212;-63
2021/09/15 07:33:44;;;;;;;5.95;5.10;;;22.10;99.90;;;;;;5090936;28;20231;-63
2021/09/15 07:36:10;;;;;;;7.25;5.13;;;22.00;99.90;;;;;;5091119;28;20228;-63
2021/09/15 07:38:38;;;;;;;8.20;5.20;;;21.80;99.90;;;;;;5091163;28;20208;-64
2021/09/15 07:41:06;;;;;;;7.18;5.03;;;21.80;99.90;;;;;;5091330;28;20204;-62
2021/09/15 07:43:32;;;;;;;5.65;3.97;;;21.80;99.90;;;;;;5090778;28;20737;-64
2021/09/15 07:45:59;;;;;;;6.97;4.40;;;21.90;99.90;;;;;;5090870;28;20228;-64
2021/09/15 07:48:26;;;;;;;5.63;4.63;;;21.80;99.90;;;;;;5090740;28;20647;-64
2021/09/15 07:50:53;;;;;;;8.50;5.22;;;21.90;99.90;;;;;;5091109;28;20204;-65
2021/09/15 07:53:20;;;;;;;6.93;5.30;;;21.90;99.90;;;;;;5091097;28;20250;-64
2021/09/15 07:55:48;;;;;;;4.93;4.25;;;22.00;99.90;;;;;;5090763;28;20216;-64
2021/09/15 07:58:15;;;;;;;9.00;5.05;;;22.10;99.90;;;;;;5090821;28;20676;-65
2021/09/15 08:00:43;;;;;;;6.97;5.05;;;22.20;99.90;;;;;;5091331;28;20204;-64
2021/09/15 08:03:09;;;;;;;5.68;4.72;;;22.20;99.90;;;;;;5091298;28;20216;-64
2021/09/15 08:05:36;;;;;;;6.47;4.80;;;22.30;99.90;;;;;;5090757;28;20232;-64
2021/09/15 08:08:03;;;;;;;7.35;4.72;;;22.40;99.90;;;;;;5090794;28;20678;-64
2021/09/15 08:10:30;;;;;;;5.60;4.80;;;22.40;99.90;;;;;;5090890;28;20215;-65
2021/09/15 08:12:58;;;;;;;7.32;4.80;;;22.40;99.90;;;;;;5090552;28;20208;-64
2021/09/15 08:15:25;;;;;;;7.00;5.40;;;22.40;99.90;;;;;;5088159;28;20436;-66
2021/09/15 08:17:52;;;;;;;7.18;5.10;;;22.50;99.90;;;;;;5090703;28;20671;-65
2021/09/15 08:20:18;;;;;;;7.10;4.55;;;22.50;99.90;;;;;;5094558;28;20199;-66
2021/09/15 08:22:45;;;;;;;5.95;4.78;;;22.50;99.90;;;;;;5094781;28;20200;-66
2021/09/15 08:25:12;;;;;;;6.20;4.38;;;22.50;99.90;;;;;;5094292;28;20710;-65
2021/09/15 08:27:39;;;;;;;8.68;4.63;;;22.50;99.90;;;;;;5094917;28;20737;-66
2021/09/15 08:30:08;;;;;;;7.07;4.63;;;22.60;99.90;;;;;;5094368;28;20220;-65
2021/09/15 08:32:35;;;;;;;7.47;4.55;;;22.70;99.90;;;;;;5093880;28;20695;-65
2021/09/15 08:35:02;;;;;;;5.53;4.10;;;22.90;99.90;;;;;;5094263;28;20228;-65
2021/09/15 08:37:33;;;;;;;9.13;3.92;;;23.00;99.90;;;;;;5094487;28;20211;-65
2021/09/15 08:39:59;;;;;;;9.52;5.85;;;23.10;99.90;;;;;;5094653;28;20203;-65
2021/09/15 08:42:26;;;;;;;6.82;4.15;;;23.10;99.90;;;;;;5094043;28;20254;-65
2021/09/15 08:44:53;;;;;;;5.82;4.03;;;23.10;99.90;;;;;;5094188;28;20228;-65
2021/09/15 08:47:25;;;;;;;6.85;3.67;;;23.10;99.90;;;;;;5094313;28;20204;-65
2021/09/15 08:49:52;;;;;;;4.55;3.67;;;23.10;99.90;;;;;;5094297;28;20204;-66
2021/09/15 08:52:19;;;;;;;6.80;3.90;;;23.20;99.90;;;;;;5093842;28;20211;-65
2021/09/15 08:54:46;;;;;;;6.15;3.90;;;23.10;99.90;;;;;;5093629;28;20235;-65
2021/09/15 08:57:12;;;;;;;6.90;4.32;;;23.10;99.90;;;;;;5095171;28;20211;-67
2021/09/15 08:59:39;;;;;;;5.32;3.83;;;23.00;99.90;;;;;;5097457;28;20204;-66
2021/09/15 09:02:07;;;;;;;7.88;3.92;;;23.00;99.90;;;;;;5095511;28;20216;-69
2021/09/15 09:04:51;;;;;;;5.50;3.97;;;22.90;99.90;;;;;;5093172;28;20232;-68
2021/09/15 09:07:18;;;;;;;6.05;3.95;;;22.90;99.90;;;;;;5077562;28;20244;-66
2021/09/15 09:09:46;;;;;;;5.78;3.78;;;22.80;99.90;;;;;;5073458;28;20243;-68
2021/09/15 09:12:12;;;;;;;7.63;4.03;;;22.70;99.90;;;;;;5073397;28;20200;-68
2021/09/15 09:14:39;;;;;;;5.82;4.10;;;22.70;99.90;;;;;;5073200;28;20229;-68
2021/09/15 09:17:06;;;;;;;6.45;4.00;;;22.60;99.90;;;;;;5073252;28;20696;-67
2021/09/15 09:19:32;;;;;;;8.38;4.15;;;22.60;99.90;;;;;;5085886;28;20215;-66
2021/09/15 09:22:04;;;;;;;8.45;3.88;;;22.60;99.90;;;;;;5101079;28;20204;-66
2021/09/15 09:24:31;;;;;;;6.50;3.88;;;22.60;99.90;;;;;;5102961;28;20633;-66
2021/09/15 09:26:58;;;;;;;7.20;4.10;;;22.60;99.90;;;;;;5102625;28;20242;-67
2021/09/15 09:29:27;;;;;;;5.25;4.30;;;22.60;99.90;;;;;;5106304;28;20286;-67
2021/09/15 09:32:00;;;;;;;6.32;3.90;;;22.60;99.90;;;;;;5106275;28;20382;-67
2021/09/15 09:34:28;;;;;;;6.32;3.33;;;22.60;99.90;;;;;;5093381;28;20212;-66
2021/09/15 09:37:02;;;;;;;5.72;3.63;;;22.60;99.90;;;;;;5098490;22;20243;-67
2021/09/15 09:39:40;;;;;;;6.00;3.60;;;22.50;99.90;;;;;;5073180;28;20192;-67
2021/09/15 09:42:31;;;;;;;5.35;3.53;;;22.50;99.90;;;;;;5073016;28;20227;-66
2021/09/15 09:45:11;;;;;;;6.28;3.60;;;22.50;99.90;;;;;;5072623;28;20212;-68
2021/09/15 09:47:39;;;;;;;6.10;2.88;;;22.40;99.90;;;;;;5072789;28;20201;-68
2021/09/15 09:50:09;;;;;;;4.80;3.15;;;22.30;99.90;;;;;;5072324;28;20572;-69
2021/09/15 09:55:31;;;;;;;5.88;3.30;;;22.20;99.90;;;;;;5128890;27;20584;-68
2021/09/15 09:57:58;;;;;;;4.50;3.22;;;22.00;99.90;;;;;;5128989;27;20234;-64
2021/09/15 10:00:26;;;;;;;5.55;3.40;;;21.90;99.90;;;;;;5129011;27;20576;-66
2021/09/15 10:02:52;;;;;;;4.15;3.08;;;21.90;99.90;;;;;;5128959;27;20689;-66
2021/09/15 10:05:20;;;;;;;4.13;3.03;;;21.90;99.90;;;;;;5128740;27;20587;-68
2021/09/15 10:07:48;;;;;;;6.43;3.10;;;21.90;99.90;;;;;;5129416;27;20203;-70
2021/09/15 10:10:17;;;;;;;7.70;3.20;;;22.00;99.90;;;;;;5125973;27;20617;-66
2021/09/15 10:12:46;;;;;;;6.38;3.25;;;22.20;99.90;;;;;;5128875;27;20206;-67
2021/09/15 10:15:14;;;;;;;5.63;3.10;;;22.40;99.90;;;;;;5128430;27;20233;-68
2021/09/15 10:17:46;;;;;;;4.70;2.90;;;22.60;99.90;;;;;;5128561;27;20210;-66
2021/09/15 10:20:15;;;;;;;3.60;2.65;;;22.90;99.90;;;;;;5128676;27;20554;-70
2021/09/15 10:22:46;;;;;;;6.45;3.50;;;23.10;99.90;;;;;;5128374;27;20199;-69
2021/09/15 10:25:12;;;;;;;6.20;3.28;;;23.40;99.90;;;;;;5128525;27;20218;-69
2021/09/15 10:28:01;;;;;;;5.68;3.03;;;23.70;99.90;;;;;;5128206;27;20210;-69
2021/09/15 10:30:48;;;;;;;4.20;3.03;;;23.90;99.90;;;;;;5128404;27;20207;-69
2021/09/15 10:33:46;;;;;;;4.90;3.03;;;24.40;99.90;;;;;;5128261;27;20218;-67
2021/09/15 10:36:36;;;;;;;5.72;2.90;;;24.80;99.90;;;;;;5128190;27;20223;-66
2021/09/15 10:39:04;;;;;;;6.07;3.00;;;25.30;99.90;;;;;;5127607;27;20700;-66
2021/09/15 10:41:39;;;;;;;5.05;3.53;;;25.70;99.90;;;;;;5127520;27;20207;-66
2021/09/15 10:44:08;;;;;;;4.63;3.10;;;25.90;99.90;;;;;;5127950;27;20261;-68
2021/09/15 10:46:36;;;;;;;4.75;3.28;;;26.20;99.90;;;;;;5128118;27;20275;-64
2021/09/15 10:49:44;;;;;;;5.07;3.00;;;26.30;99.90;;;;;;5128187;27;20210;-67
2021/09/15 10:52:37;;;;;;;4.70;3.17;;;26.60;99.90;;;;;;5128812;27;20217;-66
2021/09/15 10:55:16;;;;;;;6.55;3.45;;;26.90;99.90;;;;;;5128073;27;20231;-67
2021/09/15 10:57:44;;;;;;;7.72;5.15;;;27.10;99.90;;;;;;5127548;27;20665;-65
2021/09/15 11:00:25;;;;;;;5.50;3.20;;;27.30;99.90;;;;;;5128016;27;20686;-69
2021/09/15 11:02:52;;;;;;;4.82;2.85;;;27.40;99.90;;;;;;5128141;27;20626;-68
2021/09/15 11:05:41;;;;;;;6.32;3.63;;;27.30;99.90;;;;;;5122445;27;20717;-69
2021/09/15 11:08:08;;;;;;;4.15;3.03;;;27.00;99.90;;;;;;5113961;28;20207;-68
2021/09/15 11:10:45;;;;;;;4.68;3.05;;;26.80;99.90;;;;;;5113753;28;20207;-68
2021/09/15 11:13:14;;;;;;;3.30;2.55;;;26.60;99.90;;;;;;5112671;28;20207;-68
2021/09/15 11:15:43;;;;;;;6.03;2.90;;;26.50;99.90;;;;;;5113586;28;20235;-68
2021/09/15 11:18:17;;;;;;;4.13;2.95;;;26.40;99.90;;;;;;5113294;28;20208;-69
2021/09/15 11:20:44;;;;;;;5.00;3.22;;;26.20;99.90;;;;;;5113307;27;20235;-66
2021/09/15 11:23:11;;;;;;;4.43;3.13;;;26.00;99.90;;;;;;5113835;28;20204;-68
2021/09/15 11:25:38;;;;;;;5.40;2.95;;;25.90;99.90;;;;;;5113342;28;20255;-66
2021/09/15 11:28:10;;;;;;;8.35;3.00;;;26.00;99.90;;;;;;5113580;28;20709;-68
2021/09/15 11:30:40;;;;;;;6.05;3.40;;;26.00;99.90;;;;;;5113496;28;20203;-69
2021/09/15 11:33:08;;;;;;;4.75;2.92;;;25.90;99.90;;;;;;5113455;28;20256;-67
2021/09/15 11:35:36;;;;;;;6.43;3.17;;;25.80;99.90;;;;;;5112924;28;20694;-68
2021/09/15 11:38:05;;;;;;;4.38;3.00;;;25.70;99.90;;;;;;5113752;28;20272;-68
2021/09/15 11:40:33;;;;;;;7.03;3.35;;;25.60;99.90;;;;;;5113558;28;20212;-68
2021/09/15 11:43:05;;;;;;;7.05;3.03;;;25.80;99.90;;;;;;5113487;28;20611;-68
2021/09/15 11:45:32;;;;;;;6.40;2.80;;;25.80;99.90;;;;;;5112245;28;20231;-68
2021/09/15 11:47:59;;;;;;;4.72;2.85;;;25.90;99.90;;;;;;5112740;28;20216;-68
2021/09/15 11:50:29;;;;;;;7.68;2.90;;;25.90;99.90;;;;;;5113324;28;20249;-68
2021/09/15 11:53:00;;;;;;;6.63;3.30;;;26.00;99.90;;;;;;5113127;28;20318;-68
2021/09/15 11:55:29;;;;;;;4.78;3.35;;;26.00;99.90;;;;;;5112983;28;20421;-69
2021/09/15 11:57:59;;;;;;;5.32;3.25;;;26.00;99.90;;;;;;5112934;28;20655;-68
2021/09/15 12:00:26;;;;;;;5.22;3.78;;;26.00;99.90;;;;;;5113169;27;20290;-69
2021/09/15 12:02:55;;;;;;;7.00;3.50;;;26.10;99.90;;;;;;5113112;28;20210;-69
2021/09/15 12:05:22;;;;;;;6.28;3.63;;;26.00;99.90;;;;;;5113053;28;20227;-68
2021/09/15 12:07:51;;;;;;;10.90;8.95;;;26.00;99.90;;;;;;5112933;28;20211;-69
2021/09/15 12:10:18;;;;;;;4.15;3.38;;;26.00;99.90;;;;;;5113048;28;20301;-68
2021/09/15 12:12:45;;;;;;;7.13;3.78;;;26.00;99.90;;;;;;5112826;28;20252;-68
2021/09/15 12:15:13;;;;;;;4.95;3.42;;;25.90;99.90;;;;;;5112782;27;20231;-67
2021/09/15 12:17:39;;;;;;;4.72;3.63;;;25.60;99.90;;;;;;5110673;28;20207;-68
2021/09/15 12:20:10;;;;;;;6.90;3.70;;;25.40;99.90;;;;;;5112464;28;20214;-67
2021/09/15 12:22:37;;;;;;;7.05;4.05;;;25.20;99.90;;;;;;5112697;28;20207;-68
2021/09/15 12:25:08;;;;;;;5.40;3.83;;;25.10;99.90;;;;;;5112258;28;20226;-68
2021/09/15 12:27:36;;;;;;;7.90;3.83;;;24.90;99.90;;;;;;5111969;28;20703;-68
2021/09/15 12:30:06;;;;;;;4.72;3.30;;;24.90;99.90;;;;;;5112262;28;20203;-68
2021/09/15 12:32:35;;;;;;;5.95;4.35;;;24.80;99.90;;;;;;5112778;28;20196;-67
2021/09/15 12:35:02;;;;;;;6.88;3.70;;;24.90;99.90;;;;;;5111869;28;20226;-69
2021/09/15 12:37:38;;;;;;;4.00;2.97;;;24.90;99.90;;;;;;5112120;28;20716;-69
2021/09/15 12:40:07;;;;;;;7.25;4.63;;;25.00;99.90;;;;;;5111983;28;20226;-68
2021/09/15 12:42:37;;;;;;;5.50;4.20;;;25.00;99.90;;;;;;5111754;28;20280;-68
2021/09/15 12:45:06;;;;;;;5.20;3.50;;;25.00;99.90;;;;;;5111562;28;20219;-68
2021/09/15 12:47:37;;;;;;;5.72;3.15;;;25.00;99.90;;;;;;5110689;28;20687;-68
2021/09/15 12:50:16;;;;;;;5.53;3.90;;;25.00;99.90;;;;;;5111814;28;20208;-71
2021/09/15 12:52:45;;;;;;;7.63;4.07;;;25.20;99.90;;;;;;5112219;28;20183;-71
2021/09/15 12:55:21;;;;;;;8.30;3.47;;;25.30;99.90;;;;;;5111346;28;20231;-70
2021/09/15 12:57:58;;;;;;;3.92;3.13;;;25.50;99.90;;;;;;5111907;28;20210;-71
2021/09/15 13:00:27;;;;;;;5.35;2.95;;;25.70;99.90;;;;;;5111884;28;20199;-70